WARRWADD

Guest
Details From WARR - Surabaya Juanda
To WADD - Denpasar Ngurah Rai Intl
Flight Number -
Tags generated
Created
Modified
Stats Distance 164 nm / 303 km
Max Altitude 17,700 ft / 5,395 m
Waypoints 4
Social Downloads 2
Likes 1
Share VATSIM

Download

Looking for another format? Having issues loading an existing format? Contact us
Advertisement - Login to hide

Notes

Basic altitude profile: - Ascent Rate: 2500ft/min - Ascent Speed: 250kts - Cruise Altitude: 38000ft - Cruise Speed: 420kts - Descent Rate: 1500ft/min - Descent Speed: 250kts Options: - Use NATs: yes - Use PACOTS: yes - Use low airways: yes - Use high airways: yes

Route

WARR RABOL W33 BLI WADD

ID Type Via Altitude Latitude Longitude Leg Dist Tot Dist Heading (true) Name
O WARR APT - 0 ft / 0 m -7.37983˚ 112.78686˚ - 0 nm - Surabaya Juanda
RABOL FIX - 17,700 ft / 5,395 m -8.02142˚ 113.89569˚ 76 nm 76 nm 120° / 120° -
BLI VOR W33 (AWY-LO) 4,000 ft / 1,219 m -8.75058˚ 115.16331˚ 87 nm 163 nm 120° / 120° BALI VOR-DME
O WADD APT - 0 ft / 0 m -8.74817˚ 115.16717˚ 0 nm 163 nm 58° / 58° Denpasar Ngurah Rai Intl

Altitude Profile

Advertisement - Login to hide

Weather


0- 5 10 15 20 25 30 35+ Temperature / ° C

Clouds and Precipitation
Forecast for 2017-12-12 06:00 UTC. Updated 2 hours ago

Ground ~20,000 ft ~40,000 ft Winds

WARR

Details ICAO WARR (SUB)
Name Surabaya Juanda
Region Indonesia
Timezone Asia/Jakarta (UTC+7.0)
Stats Elevation 9 ft / 3 m (AMSL)
Location -7.379832° 112.786858°
Runways 1
Magnetic Variation 0.953° E

METAR

WARR 120400Z 20006KT 130V250 9999 FEW020 30/24 Q1010 NOSIG

Decode

TAF

Not found

Departure Runways

ID Width Length Bearing (true) Bearing (mag) Surface Threshold Offset Overrun Length
10 148 ft / 45 m 9,836 ft / 2,998 m 99.32° 98.37° Asphalt 0 ft / 0 m 328 ft / 100 m
28 148 ft / 45 m 9,836 ft / 2,998 m 279.32° 278.37° Asphalt 0 ft / 0 m 328 ft / 100 m

WADD

Details ICAO WADD (DPS)
Name Denpasar Ngurah Rai Intl
Region Indonesia
Timezone Asia/Makassar (UTC+8.0)
Stats Elevation 14 ft / 4 m (AMSL)
Location -8.748169° 115.167174°
Runways 1
Magnetic Variation 1.056° E

METAR

WADD 120430Z 27009KT 240V310 9999 SCT015 29/25 Q1009 NOSIG

Decode

TAF

Not found

Destination Runways

ID Width Length Bearing (true) Bearing (mag) Surface Threshold Offset Overrun Length
09 148 ft / 45 m 9,779 ft / 2,981 m 87.71° 86.65° Asphalt 121 ft / 37 m 75 ft / 23 m
27 148 ft / 45 m 9,779 ft / 2,981 m 267.70° 266.64° Asphalt 0 ft / 0 m 197 ft / 60 m

Approach Navaids

Runway Type Ident Frequency Range Bearing (true) Bearing (mag) Slope Elevation
27 Localiser IDPS 110.30 MHz 18 nm / 33 km 267.70° 266.65° - 10 ft / 3 m (AMSL)
27 Glidescope IDPS 110.30 MHz 10 nm / 19 km 267.70° 266.65° 3.00° 12 ft / 4 m (AMSL)
27 DME IDPS 110.30 MHz 18 nm / 33 km - - - 14 ft / 4 m (AMSL)

Popular Alternatives